Time;durP1;ratioP1;P1;durP2;ratioP2;P2;SDS_P1;SDS_P2;PMS_P1;PMS_P2;Temp;Humidity;BMP_temperature;BMP_pressure;BME280_temperature;BME280_humidity;BME280_pressure;Samples;Min_cycle;Max_cycle;Signal;HPM_P1;HPM_P2
2023/05/03 00:00:50;;;;;;;3.05;1.33;;;7.70;99.90;;;;;;5073050;28;20439;-41
2023/05/03 00:03:15;;;;;;;4.45;0.98;;;7.70;99.90;;;;;;5073015;28;20024;-45
2023/05/03 00:05:41;;;;;;;5.18;1.25;;;7.70;99.90;;;;;;5072966;28;20026;-43
2023/05/03 00:08:07;;;;;;;4.40;1.40;;;7.60;99.90;;;;;;5071851;28;20438;-42
2023/05/03 00:10:32;;;;;;;1.77;0.93;;;7.60;99.90;;;;;;5067738;28;20029;-41
2023/05/03 00:12:58;;;;;;;5.88;1.08;;;7.60;99.90;;;;;;5052908;28;20032;-41
2023/05/03 00:16:00;;;;;;;2.83;0.90;;;7.60;99.90;;;;;;5065482;28;20100;-42
2023/05/03 00:18:26;;;;;;;1.20;1.02;;;7.60;99.90;;;;;;5073026;28;20036;-43
2023/05/03 00:20:54;;;;;;;0.68;0.68;;;7.60;99.90;;;;;;5072875;28;20489;-42
2023/05/03 00:23:20;;;;;;;2.70;1.10;;;7.50;99.90;;;;;;5058932;28;20021;-39
2023/05/03 00:25:46;;;;;;;7.30;1.25;;;7.40;99.90;;;;;;5057117;28;20496;-41
2023/05/03 00:28:11;;;;;;;2.63;0.85;;;7.50;99.90;;;;;;5058221;28;20032;-43
2023/05/03 00:30:37;;;;;;;2.15;0.90;;;7.50;99.90;;;;;;5051259;28;20028;-38
2023/05/03 00:33:02;;;;;;;1.23;1.10;;;7.40;99.90;;;;;;5054628;28;20033;-40
2023/05/03 00:35:28;;;;;;;3.50;0.75;;;7.40;99.90;;;;;;5060855;28;20031;-33
2023/05/03 00:37:54;;;;;;;2.63;1.17;;;7.40;99.90;;;;;;5060240;28;20037;-33
2023/05/03 00:40:19;;;;;;;5.18;1.50;;;7.40;99.90;;;;;;5068924;28;20028;-37
2023/05/03 00:42:45;;;;;;;8.27;1.27;;;7.30;99.90;;;;;;5068385;28;20024;-35
2023/05/03 00:45:11;;;;;;;2.67;1.13;;;7.30;99.90;;;;;;5068960;28;20467;-36
2023/05/03 00:47:37;;;;;;;2.90;1.00;;;7.20;99.90;;;;;;5071158;28;20017;-37
2023/05/03 00:50:03;;;;;;;1.63;0.90;;;7.30;99.90;;;;;;5070441;28;20025;-38
2023/05/03 00:52:29;;;;;;;3.65;1.00;;;7.20;99.90;;;;;;5060084;28;20028;-37
2023/05/03 00:54:56;;;;;;;6.03;1.15;;;7.10;99.90;;;;;;5072761;28;20025;-36
2023/05/03 00:57:23;;;;;;;12.02;1.27;;;7.10;99.90;;;;;;5061094;28;20504;-37
2023/05/03 00:59:51;;;;;;;4.45;1.90;;;7.10;99.90;;;;;;5052613;28;20021;-37
2023/05/03 01:02:17;;;;;;;2.50;1.30;;;7.10;99.90;;;;;;5063253;28;20031;-38
2023/05/03 01:04:42;;;;;;;3.40;1.83;;;7.00;99.90;;;;;;5071921;28;20021;-34
2023/05/03 01:07:21;;;;;;;2.58;1.30;;;7.00;99.90;;;;;;5066142;28;20033;-38
2023/05/03 01:10:31;;;;;;;1.45;1.35;;;7.00;99.90;;;;;;5068998;28;20029;-37
2023/05/03 01:13:26;;;;;;;4.25;1.08;;;7.00;99.90;;;;;;5073700;28;20044;-38
2023/05/03 01:16:33;;;;;;;3.42;0.85;;;6.90;99.90;;;;;;5076157;28;20554;-39
2023/05/03 01:19:12;;;;;;;5.72;1.27;;;6.90;99.90;;;;;;5064179;28;20033;-38
2023/05/03 01:21:41;;;;;;;1.30;0.98;;;6.90;99.90;;;;;;5075954;28;20025;-37
2023/05/03 01:24:16;;;;;;;3.30;1.42;;;6.90;99.90;;;;;;5056181;28;20079;-34
2023/05/03 01:26:42;;;;;;;3.00;1.67;;;6.90;99.90;;;;;;5067026;28;20121;-34
2023/05/03 01:29:08;;;;;;;3.70;1.40;;;6.80;99.90;;;;;;5075812;28;20079;-35
2023/05/03 01:31:54;;;;;;;4.43;1.98;;;6.90;99.90;;;;;;5075798;28;20030;-34
2023/05/03 01:34:58;;;;;;;1.52;1.23;;;6.80;99.90;;;;;;5075700;28;20021;-34
2023/05/03 01:37:24;;;;;;;3.42;1.30;;;6.70;99.90;;;;;;5075409;28;20120;-37
2023/05/03 01:39:53;;;;;;;6.82;1.40;;;6.70;99.90;;;;;;5075947;28;20655;-39
2023/05/03 01:42:20;;;;;;;4.53;1.58;;;6.70;99.90;;;;;;5075599;28;20012;-37
2023/05/03 01:44:47;;;;;;;4.47;1.27;;;6.60;99.90;;;;;;5075039;28;20108;-39
2023/05/03 01:47:14;;;;;;;3.97;1.42;;;6.70;99.90;;;;;;5075328;28;20024;-37
2023/05/03 01:49:39;;;;;;;1.60;1.13;;;6.60;99.90;;;;;;5075645;28;20031;-38
2023/05/03 01:52:05;;;;;;;0.93;0.80;;;6.70;99.90;;;;;;5074226;28;20044;-37
2023/05/03 01:54:31;;;;;;;6.18;1.55;;;6.70;99.90;;;;;;5075672;28;20462;-37
2023/05/03 01:56:56;;;;;;;6.63;1.02;;;6.70;99.90;;;;;;5075253;28;20388;-37
2023/05/03 01:59:22;;;;;;;4.97;1.58;;;6.70;99.90;;;;;;5075570;28;20013;-36
2023/05/03 02:01:48;;;;;;;4.35;1.27;;;6.70;99.90;;;;;;5071849;28;20374;-37
2023/05/03 02:04:13;;;;;;;2.35;1.20;;;6.60;99.90;;;;;;5059249;28;20021;-40
2023/05/03 02:06:39;;;;;;;3.70;1.02;;;6.60;99.90;;;;;;5055355;28;20024;-35
2023/05/03 02:09:11;;;;;;;5.80;2.30;;;6.60;99.90;;;;;;5067487;28;20036;-36
2023/05/03 02:11:37;;;;;;;4.30;2.08;;;6.50;99.90;;;;;;5071816;28;20086;-36
2023/05/03 02:14:02;;;;;;;2.92;1.40;;;6.60;99.90;;;;;;5054723;28;20482;-37
2023/05/03 02:16:28;;;;;;;3.70;1.35;;;6.50;99.90;;;;;;5056117;28;20032;-37
2023/05/03 02:18:58;;;;;;;5.30;1.30;;;6.60;99.90;;;;;;5066848;28;20032;-37
2023/05/03 02:21:25;;;;;;;4.70;1.23;;;6.50;99.90;;;;;;5074860;28;20012;-36
2023/05/03 02:23:50;;;;;;;6.93;1.40;;;6.50;99.90;;;;;;5067687;28;20394;-36
2023/05/03 02:26:16;;;;;;;2.38;1.42;;;6.50;99.90;;;;;;5054739;28;20024;-39
2023/05/03 02:28:42;;;;;;;3.97;1.48;;;6.50;99.90;;;;;;5061733;28;20104;-36
2023/05/03 02:31:08;;;;;;;1.98;1.60;;;6.50;99.90;;;;;;5073150;28;20028;-38
2023/05/03 02:33:33;;;;;;;2.35;1.35;;;6.50;99.90;;;;;;5072982;28;20028;-36
2023/05/03 02:35:59;;;;;;;5.97;1.83;;;6.50;99.90;;;;;;5061840;28;20029;-38
2023/05/03 02:38:25;;;;;;;1.83;1.23;;;6.50;99.90;;;;;;5061541;28;20035;-38
2023/05/03 02:40:50;;;;;;;5.70;1.40;;;6.50;99.90;;;;;;5074519;28;20389;-37
2023/05/03 02:43:16;;;;;;;5.20;1.27;;;6.40;99.90;;;;;;5074324;28;20485;-36
2023/05/03 02:45:43;;;;;;;5.75;1.13;;;6.40;99.90;;;;;;5071924;28;20101;-38
2023/05/03 02:48:08;;;;;;;1.73;1.23;;;6.30;99.90;;;;;;5074339;28;20028;-39
2023/05/03 02:50:34;;;;;;;10.23;1.15;;;6.40;99.90;;;;;;5074103;28;20049;-36
2023/05/03 02:53:00;;;;;;;3.20;1.52;;;6.40;99.90;;;;;;5074348;28;20439;-38
2023/05/03 02:55:26;;;;;;;2.95;1.35;;;6.40;99.90;;;;;;5072963;28;20107;-35
2023/05/03 02:57:52;;;;;;;8.23;1.45;;;6.30;99.90;;;;;;5072701;28;20116;-37
2023/05/03 03:00:18;;;;;;;2.88;1.33;;;6.30;99.90;;;;;;5071667;28;20437;-41
2023/05/03 03:02:44;;;;;;;5.10;1.50;;;6.30;99.90;;;;;;5070001;28;20021;-38
2023/05/03 03:05:09;;;;;;;4.78;1.17;;;6.20;99.90;;;;;;5059978;28;20086;-38
2023/05/03 03:07:38;;;;;;;0.98;0.93;;;6.20;99.90;;;;;;5073289;28;20027;-39
2023/05/03 03:10:05;;;;;;;7.00;1.30;;;6.20;99.90;;;;;;5065624;28;20082;-44
2023/05/03 03:12:32;;;;;;;1.95;1.17;;;6.10;99.90;;;;;;5071977;28;20457;-40
2023/05/03 03:14:57;;;;;;;2.47;1.38;;;6.10;99.90;;;;;;5072734;28;20516;-41
2023/05/03 03:17:23;;;;;;;2.70;0.82;;;6.10;99.90;;;;;;5073725;28;20060;-41
2023/05/03 03:19:48;;;;;;;1.85;1.00;;;6.00;99.90;;;;;;5073675;28;20468;-40
2023/05/03 03:22:14;;;;;;;2.55;1.00;;;6.00;99.90;;;;;;5072594;28;20032;-42
2023/05/03 03:24:40;;;;;;;5.97;1.35;;;5.90;99.90;;;;;;5073038;28;20112;-40
2023/05/03 03:27:05;;;;;;;2.10;0.95;;;5.90;99.90;;;;;;5073508;28;20023;-41
2023/05/03 03:29:31;;;;;;;3.75;1.45;;;5.90;99.90;;;;;;5072196;28;20036;-40
2023/05/03 03:31:57;;;;;;;12.32;1.80;;;5.90;99.90;;;;;;5073486;28;20023;-45
2023/05/03 03:34:23;;;;;;;6.88;1.27;;;5.90;99.90;;;;;;5073487;28;20381;-43
2023/05/03 03:36:49;;;;;;;2.47;1.20;;;5.80;99.90;;;;;;5073494;28;20024;-42
2023/05/03 03:39:14;;;;;;;3.50;1.00;;;5.80;99.90;;;;;;5072372;28;20028;-39
2023/05/03 03:41:41;;;;;;;2.63;1.13;;;5.80;99.90;;;;;;5073011;28;20059;-40
2023/05/03 03:44:07;;;;;;;2.58;1.30;;;5.70;99.90;;;;;;5073075;28;20025;-45
2023/05/03 03:46:33;;;;;;;4.10;1.52;;;5.70;99.90;;;;;;5053825;28;20025;-43
2023/05/03 03:48:59;;;;;;;2.83;1.23;;;5.60;99.90;;;;;;5053149;28;20029;-42
2023/05/03 03:51:24;;;;;;;1.27;1.02;;;5.60;99.90;;;;;;5052733;28;20505;-42
2023/05/03 03:53:50;;;;;;;1.88;1.33;;;5.60;99.90;;;;;;5053241;28;20052;-42
2023/05/03 03:56:16;;;;;;;5.90;1.13;;;5.50;99.90;;;;;;5053446;28;20426;-40
2023/05/03 03:58:42;;;;;;;1.65;1.30;;;5.50;99.90;;;;;;5053069;28;20060;-40
2023/05/03 04:01:07;;;;;;;6.32;1.38;;;5.50;99.90;;;;;;5067795;28;20111;-41
2023/05/03 04:03:33;;;;;;;5.75;1.75;;;5.50;99.90;;;;;;5073011;28;20021;-41
2023/05/03 04:05:59;;;;;;;1.05;1.05;;;5.50;99.90;;;;;;5073096;28;20099;-41
2023/05/03 04:08:24;;;;;;;4.50;1.25;;;5.40;99.90;;;;;;5073003;28;20358;-43
2023/05/03 04:10:50;;;;;;;1.27;1.08;;;5.40;99.90;;;;;;5059174;28;20069;-47
2023/05/03 04:13:16;;;;;;;3.65;1.20;;;5.40;99.90;;;;;;5053014;28;20043;-42
2023/05/03 04:15:41;;;;;;;1.70;1.27;;;5.40;99.90;;;;;;5052743;28;20033;-41
2023/05/03 04:18:07;;;;;;;7.13;1.13;;;5.40;99.90;;;;;;5065867;28;20495;-41
2023/05/03 04:20:35;;;;;;;4.80;1.50;;;5.40;99.90;;;;;;5072873;28;20119;-42
2023/05/03 04:23:00;;;;;;;2.38;1.30;;;5.30;99.90;;;;;;5073017;28;20494;-41
2023/05/03 04:25:26;;;;;;;6.15;1.30;;;5.30;99.90;;;;;;5073122;28;20023;-45
2023/05/03 04:27:52;;;;;;;5.07;1.30;;;5.40;99.90;;;;;;5071885;28;20029;-47
2023/05/03 04:30:18;;;;;;;1.63;1.48;;;5.40;99.90;;;;;;5069661;28;20037;-45
2023/05/03 04:32:44;;;;;;;0.98;0.95;;;5.40;99.90;;;;;;5060236;28;20096;-44
2023/05/03 04:35:11;;;;;;;5.88;1.40;;;5.30;99.90;;;;;;5072506;28;20111;-43
2023/05/03 04:37:37;;;;;;;2.97;2.03;;;5.30;99.90;;;;;;5062233;28;20028;-42
2023/05/03 04:40:07;;;;;;;2.22;1.55;;;5.40;99.90;;;;;;5072683;28;20535;-40
2023/05/03 04:42:33;;;;;;;3.72;1.08;;;5.50;99.90;;;;;;5074045;28;20028;-37
2023/05/03 04:44:58;;;;;;;6.28;1.40;;;5.50;99.90;;;;;;5075860;28;20013;-38
2023/05/03 04:47:24;;;;;;;6.22;1.80;;;5.50;99.90;;;;;;5076415;28;20031;-39
2023/05/03 04:49:50;;;;;;;2.75;1.50;;;5.60;99.90;;;;;;5076594;28;20051;-41
2023/05/03 04:52:16;;;;;;;2.92;1.58;;;5.60;99.90;;;;;;5076377;28;20040;-41
2023/05/03 04:54:41;;;;;;;9.82;2.83;;;5.60;99.90;;;;;;5075926;28;20497;-39
2023/05/03 04:57:09;;;;;;;1.65;1.55;;;5.70;99.90;;;;;;5073091;28;20032;-39
2023/05/03 04:59:34;;;;;;;7.53;1.70;;;5.80;99.90;;;;;;5073686;28;20025;-36
2023/05/03 05:02:00;;;;;;;6.95;1.90;;;5.80;99.90;;;;;;5074201;28;20047;-39
2023/05/03 05:04:26;;;;;;;3.80;1.50;;;5.90;99.90;;;;;;5073289;28;20024;-36
2023/05/03 05:06:52;;;;;;;5.82;1.58;;;5.90;99.90;;;;;;5071107;28;20048;-37
2023/05/03 05:09:23;;;;;;;7.10;1.48;;;6.00;99.90;;;;;;5074889;28;20032;-38
2023/05/03 05:11:48;;;;;;;3.83;1.80;;;6.10;99.90;;;;;;5074529;28;20071;-40
2023/05/03 05:14:14;;;;;;;7.95;1.42;;;6.10;99.90;;;;;;5075486;28;20060;-38
2023/05/03 05:16:40;;;;;;;9.25;1.83;;;6.10;99.90;;;;;;5072247;28;20094;-35
2023/05/03 05:19:06;;;;;;;3.08;1.63;;;6.20;99.90;;;;;;5073195;28;20036;-39
2023/05/03 05:21:32;;;;;;;3.13;1.45;;;6.20;99.90;;;;;;5071828;28;20480;-38
2023/05/03 05:23:58;;;;;;;7.65;1.40;;;6.30;99.90;;;;;;5071958;28;20549;-40
2023/05/03 05:26:24;;;;;;;4.80;2.58;;;6.40;99.90;;;;;;5076194;28;20036;-36
2023/05/03 05:28:50;;;;;;;11.02;1.88;;;6.40;99.90;;;;;;5072524;28;20063;-39
2023/05/03 05:31:16;;;;;;;6.53;1.27;;;6.50;99.90;;;;;;5067004;28;20482;-36
2023/05/03 05:33:42;;;;;;;7.97;1.52;;;6.60;99.90;;;;;;5063969;28;20032;-34
2023/05/03 05:36:07;;;;;;;9.13;1.52;;;6.60;99.90;;;;;;5071846;28;20024;-37
2023/05/03 05:38:33;;;;;;;1.92;1.38;;;6.70;99.90;;;;;;5075151;28;20046;-37
2023/05/03 05:40:59;;;;;;;2.35;1.27;;;6.80;99.90;;;;;;5072195;28;20059;-37
2023/05/03 05:43:24;;;;;;;1.55;1.42;;;6.90;99.90;;;;;;5075796;28;20381;-36
2023/05/03 05:45:50;;;;;;;8.05;1.40;;;6.90;99.90;;;;;;5072572;28;20029;-39
2023/05/03 05:48:15;;;;;;;6.13;1.10;;;7.10;99.90;;;;;;5069912;28;20409;-34
2023/05/03 05:50:41;;;;;;;1.90;1.17;;;7.10;99.90;;;;;;5066918;28;20064;-37
2023/05/03 05:53:08;;;;;;;5.15;1.73;;;7.20;99.90;;;;;;5061880;28;20036;-38
2023/05/03 05:55:34;;;;;;;5.00;1.88;;;7.30;99.90;;;;;;5075667;28;20040;-36
2023/05/03 05:58:00;;;;;;;8.07;1.67;;;7.40;99.90;;;;;;5075010;28;20094;-39
2023/05/03 06:00:26;;;;;;;8.55;1.88;;;7.50;99.90;;;;;;5074526;28;20505;-36
2023/05/03 06:02:51;;;;;;;32.92;6.13;;;7.60;99.90;;;;;;5074989;28;20061;-38
2023/05/03 06:05:17;;;;;;;5.35;1.45;;;7.60;99.90;;;;;;5074859;28;20027;-37
2023/05/03 06:07:43;;;;;;;1.48;1.08;;;7.60;99.90;;;;;;5073325;28;20036;-37
2023/05/03 06:10:09;;;;;;;6.22;1.80;;;7.60;99.90;;;;;;5074799;28;20389;-38
2023/05/03 06:12:35;;;;;;;4.75;1.40;;;7.70;99.90;;;;;;5072707;28;20028;-36
2023/05/03 06:15:02;;;;;;;2.00;1.52;;;7.80;99.90;;;;;;5075291;28;20504;-37
2023/05/03 06:17:27;;;;;;;5.68;2.13;;;7.90;99.90;;;;;;5074479;28;20079;-36
2023/05/03 06:19:53;;;;;;;1.83;1.08;;;8.00;99.90;;;;;;5063849;28;20434;-38
2023/05/03 06:22:18;;;;;;;8.65;2.40;;;8.20;99.90;;;;;;5074094;28;20064;-36
2023/05/03 06:24:44;;;;;;;1.27;1.10;;;8.40;99.90;;;;;;5073450;28;20016;-35
2023/05/03 06:27:10;;;;;;;8.30;1.30;;;8.50;99.90;;;;;;5074783;28;20551;-39
2023/05/03 06:29:35;;;;;;;11.05;1.45;;;8.70;99.90;;;;;;5074042;28;20020;-33
2023/05/03 06:32:01;;;;;;;1.35;0.85;;;8.80;99.90;;;;;;5074520;28;20021;-38
2023/05/03 06:34:27;;;;;;;3.15;1.05;;;9.00;99.90;;;;;;5074453;28;20078;-36
2023/05/03 06:36:54;;;;;;;3.17;1.10;;;9.10;99.90;;;;;;5074260;28;20028;-37
2023/05/03 06:39:20;;;;;;;1.67;1.30;;;9.20;99.90;;;;;;5066913;28;20139;-39
2023/05/03 06:41:46;;;;;;;1.38;1.23;;;9.30;99.90;;;;;;5060939;28;20446;-37
2023/05/03 06:44:11;;;;;;;1.83;1.35;;;9.50;99.90;;;;;;5074568;28;20093;-39
2023/05/03 06:46:37;;;;;;;2.35;1.13;;;9.60;99.90;;;;;;5072014;28;20431;-39
2023/05/03 06:49:03;;;;;;;4.43;1.48;;;9.70;99.90;;;;;;5070070;28;20505;-37
2023/05/03 06:51:31;;;;;;;6.90;1.27;;;9.80;99.90;;;;;;5073943;28;20132;-39
2023/05/03 06:54:05;;;;;;;3.10;1.40;;;10.00;99.90;;;;;;5074414;28;20024;-40
2023/05/03 06:56:32;;;;;;;5.97;2.08;;;10.20;99.90;;;;;;5063664;28;20029;-40
2023/05/03 06:58:58;;;;;;;5.63;1.38;;;10.50;99.90;;;;;;5072389;28;20029;-37
2023/05/03 07:01:23;;;;;;;2.72;1.35;;;10.60;99.90;;;;;;5062036;28;20115;-37
2023/05/03 07:03:49;;;;;;;3.13;1.17;;;10.70;99.90;;;;;;5067276;28;20089;-38
2023/05/03 07:06:15;;;;;;;4.22;1.25;;;10.70;99.90;;;;;;5062448;28;20771;-37
2023/05/03 07:08:41;;;;;;;1.75;1.23;;;10.70;99.90;;;;;;5056934;28;20035;-37
2023/05/03 07:11:07;;;;;;;2.38;0.93;;;10.70;99.90;;;;;;5054121;28;20033;-37
2023/05/03 07:13:33;;;;;;;3.78;1.08;;;10.60;99.90;;;;;;5055486;28;20039;-38
2023/05/03 07:15:59;;;;;;;1.23;1.05;;;10.80;99.90;;;;;;5065806;28;20429;-39
2023/05/03 07:18:24;;;;;;;1.95;1.15;;;10.90;99.90;;;;;;5053377;28;20425;-41
2023/05/03 07:20:50;;;;;;;5.50;1.42;;;10.90;99.90;;;;;;5053719;28;20020;-38
2023/05/03 07:23:16;;;;;;;4.68;0.88;;;11.10;99.90;;;;;;5053639;28;20045;-38
2023/05/03 07:25:42;;;;;;;8.27;1.10;;;11.40;99.90;;;;;;5059261;28;20021;-38
2023/05/03 07:28:08;;;;;;;8.10;0.85;;;11.50;99.90;;;;;;5053604;28;20029;-34
2023/05/03 07:30:33;;;;;;;7.57;1.00;;;11.70;99.90;;;;;;5059313;28;20032;-36
2023/05/03 07:32:59;;;;;;;2.33;0.77;;;11.70;99.90;;;;;;5071510;28;20039;-39
2023/05/03 07:35:28;;;;;;;2.55;0.85;;;11.80;99.90;;;;;;5071734;28;20082;-42
2023/05/03 07:37:54;;;;;;;2.22;0.82;;;11.80;99.90;;;;;;5067923;28;20028;-41
2023/05/03 07:40:19;;;;;;;3.28;0.70;;;12.00;99.90;;;;;;5070838;28;20535;-46
2023/05/03 07:42:45;;;;;;;8.30;1.00;;;12.10;99.90;;;;;;5071823;28;20430;-37
2023/05/03 07:45:11;;;;;;;6.78;0.98;;;12.20;99.90;;;;;;5071145;28;20029;-41
2023/05/03 07:47:38;;;;;;;2.65;0.85;;;12.30;99.90;;;;;;5073103;28;20067;-35
2023/05/03 07:50:05;;;;;;;0.98;0.95;;;12.30;99.90;;;;;;5068132;28;20025;-36
2023/05/03 07:52:37;;;;;;;2.63;0.88;;;12.40;99.90;;;;;;5055832;28;20477;-38
2023/05/03 07:55:04;;;;;;;6.18;1.17;;;12.50;99.90;;;;;;5071876;28;20024;-36
2023/05/03 07:57:30;;;;;;;3.42;0.85;;;12.60;99.90;;;;;;5069859;28;20033;-37
2023/05/03 07:59:56;;;;;;;0.80;0.63;;;12.70;99.90;;;;;;5068797;28;20382;-35
2023/05/03 08:02:22;;;;;;;1.67;0.82;;;12.70;99.90;;;;;;5053306;28;20054;-37
2023/05/03 08:04:47;;;;;;;6.40;1.23;;;12.80;99.90;;;;;;5053030;28;20540;-35
2023/05/03 08:07:13;;;;;;;2.97;0.75;;;13.00;99.90;;;;;;5064041;28;20029;-37
2023/05/03 08:09:40;;;;;;;4.28;0.75;;;13.00;99.90;;;;;;5068404;28;20028;-38
2023/05/03 08:12:06;;;;;;;2.08;1.20;;;13.00;99.90;;;;;;5072864;28;20111;-38
2023/05/03 08:14:32;;;;;;;1.65;0.90;;;13.10;99.90;;;;;;5070171;28;20139;-38
2023/05/03 08:16:58;;;;;;;3.53;1.10;;;13.20;99.90;;;;;;5067027;28;20075;-36
2023/05/03 08:19:25;;;;;;;1.50;1.02;;;13.20;99.90;;;;;;5069737;28;20534;-34
2023/05/03 08:21:53;;;;;;;5.07;1.25;;;13.30;99.90;;;;;;5065114;28;20362;-38
2023/05/03 08:24:19;;;;;;;3.78;1.00;;;13.40;99.90;;;;;;5063869;28;20060;-36
2023/05/03 08:26:45;;;;;;;9.48;1.42;;;13.50;99.90;;;;;;5066980;28;20124;-35
2023/05/03 08:29:10;;;;;;;5.43;1.30;;;13.70;99.90;;;;;;5072407;28;20024;-34
2023/05/03 08:31:36;;;;;;;6.85;1.35;;;13.80;99.90;;;;;;5065560;28;20388;-37
2023/05/03 08:34:03;;;;;;;6.47;1.63;;;14.00;99.10;;;;;;5057547;28;20390;-36
2023/05/03 08:36:30;;;;;;;3.40;1.30;;;14.20;99.20;;;;;;5055463;28;20032;-37
2023/05/03 08:38:56;;;;;;;7.63;1.77;;;14.10;99.40;;;;;;5063312;28;20028;-40
2023/05/03 08:41:28;;;;;;;2.17;1.35;;;13.80;99.60;;;;;;5065299;28;20020;-43
2023/05/03 08:43:54;;;;;;;3.30;1.27;;;13.90;99.30;;;;;;5065353;28;20111;-42
2023/05/03 08:46:20;;;;;;;1.48;0.77;;;14.00;99.20;;;;;;5061609;28;20051;-40
2023/05/03 08:48:51;;;;;;;9.98;1.48;;;14.10;99.30;;;;;;5052332;28;20381;-43
2023/05/03 08:51:18;;;;;;;4.38;1.23;;;14.70;97.90;;;;;;5061943;28;20048;-42
2023/05/03 08:53:44;;;;;;;5.88;1.60;;;15.00;98.40;;;;;;5071128;28;20078;-45
2023/05/03 08:56:11;;;;;;;2.65;1.83;;;14.90;98.50;;;;;;5064760;28;20032;-43
2023/05/03 08:58:37;;;;;;;5.20;1.08;;;14.90;97.90;;;;;;5066276;28;20043;-45
2023/05/03 09:01:08;;;;;;;2.33;1.10;;;15.30;97.90;;;;;;5071120;28;20016;-44
2023/05/03 09:03:35;;;;;;;9.38;1.25;;;15.20;98.10;;;;;;5052713;28;20036;-43
2023/05/03 09:06:01;;;;;;;4.13;0.98;;;15.50;97.30;;;;;;5052442;28;20462;-43
2023/05/03 09:08:29;;;;;;;1.45;1.15;;;16.00;96.80;;;;;;5052465;28;20104;-45
2023/05/03 09:10:54;;;;;;;7.70;0.98;;;16.10;97.50;;;;;;5052599;28;20029;-45
2023/05/03 09:13:21;;;;;;;1.98;1.20;;;16.10;97.70;;;;;;5054268;28;20374;-45
2023/05/03 09:15:53;;;;;;;4.22;1.45;;;16.60;96.20;;;;;;5067482;28;20052;-45
2023/05/03 09:18:19;;;;;;;8.65;1.77;;;16.30;96.40;;;;;;5072318;28;20056;-46
2023/05/03 09:20:50;;;;;;;5.47;1.23;;;16.40;96.80;;;;;;5072519;28;20477;-44
2023/05/03 09:23:18;;;;;;;5.97;0.98;;;16.70;96.60;;;;;;5072364;28;20103;-46
2023/05/03 09:25:50;;;;;;;1.77;0.98;;;17.60;95.40;;;;;;5072381;28;20516;-44
2023/05/03 09:28:16;;;;;;;1.83;1.33;;;18.20;94.90;;;;;;5073347;28;20086;-44
2023/05/03 09:30:43;;;;;;;3.28;1.10;;;18.80;93.80;;;;;;5075971;28;20033;-43
2023/05/03 09:33:10;;;;;;;5.57;1.33;;;19.50;93.20;;;;;;5074911;28;20081;-47
2023/05/03 09:35:54;;;;;;;0.90;0.90;;;19.20;93.20;;;;;;5075794;28;20023;-45
2023/05/03 09:38:35;;;;;;;3.88;1.23;;;19.00;94.00;;;;;;5076071;28;20448;-46
2023/05/03 09:41:02;;;;;;;1.88;1.48;;;18.50;93.50;;;;;;5075911;28;20039;-42
2023/05/03 09:43:28;;;;;;;5.97;1.25;;;18.60;93.40;;;;;;5075682;28;20027;-46
2023/05/03 09:46:10;;;;;;;1.42;0.90;;;18.90;93.90;;;;;;5075580;28;20029;-44
2023/05/03 09:48:37;;;;;;;5.43;1.13;;;18.30;94.00;;;;;;5074586;28;20481;-48
2023/05/03 09:51:07;;;;;;;2.45;1.15;;;18.10;94.00;;;;;;5075269;28;20496;-41
2023/05/03 09:53:34;;;;;;;0.70;0.68;;;17.80;94.10;;;;;;5075618;28;20503;-41
2023/05/03 09:56:03;;;;;;;5.50;1.20;;;18.20;94.00;;;;;;5075697;28;20516;-44
2023/05/03 09:58:29;;;;;;;1.45;1.20;;;18.00;93.60;;;;;;5075321;28;20036;-44
2023/05/03 10:00:56;;;;;;;4.95;0.90;;;18.20;93.10;;;;;;5075382;28;20053;-45
2023/05/03 10:03:47;;;;;;;8.65;4.57;;;18.00;94.30;;;;;;5075209;28;20024;-43
2023/05/03 10:06:31;;;;;;;4.28;1.17;;;17.90;93.50;;;;;;5074748;28;20392;-43
2023/05/03 10:09:20;;;;;;;1.15;0.80;;;17.90;93.90;;;;;;5068376;28;20111;-45
2023/05/03 10:11:58;;;;;;;5.82;1.52;;;17.90;94.00;;;;;;5062438;28;20477;-44
2023/05/03 10:14:23;;;;;;;1.88;0.77;;;17.80;93.60;;;;;;5074465;28;20063;-42
2023/05/03 10:16:56;;;;;;;2.10;1.20;;;17.90;93.70;;;;;;5074968;28;20514;-45
2023/05/03 10:19:36;;;;;;;2.97;1.83;;;18.10;93.50;;;;;;5074942;28;20024;-44
2023/05/03 10:22:04;;;;;;;1.23;0.90;;;17.90;93.30;;;;;;5074010;28;20473;-42
2023/05/03 10:24:31;;;;;;;0.90;0.90;;;17.90;93.40;;;;;;5075095;28;20077;-43
2023/05/03 10:26:58;;;;;;;8.73;1.55;;;18.20;92.60;;;;;;5074694;28;20054;-41
2023/05/03 10:29:47;;;;;;;2.17;0.98;;;18.40;93.00;;;;;;5074809;28;20400;-42
2023/05/03 10:32:39;;;;;;;4.97;1.75;;;18.50;92.80;;;;;;5069475;28;20044;-44
2023/05/03 10:35:12;;;;;;;7.15;2.10;;;18.40;92.60;;;;;;5062130;28;20514;-44
2023/05/03 10:37:40;;;;;;;2.83;1.05;;;17.60;92.80;;;;;;5054462;28;20374;-44
2023/05/03 10:40:13;;;;;;;1.92;1.17;;;17.40;93.30;;;;;;5062838;28;20066;-42
2023/05/03 10:42:41;;;;;;;2.22;1.65;;;17.20;93.50;;;;;;5074628;28;20448;-42
2023/05/03 10:45:08;;;;;;;3.22;1.55;;;17.30;93.60;;;;;;5074474;28;20016;-42
2023/05/03 10:47:34;;;;;;;3.50;1.20;;;17.30;93.40;;;;;;5074345;28;20107;-41
2023/05/03 10:50:15;;;;;;;1.90;1.20;;;17.30;93.30;;;;;;5074147;28;20044;-41
2023/05/03 10:52:40;;;;;;;1.30;1.20;;;17.10;94.30;;;;;;5074633;28;20480;-41
2023/05/03 10:55:20;;;;;;;4.60;2.15;;;16.80;94.40;;;;;;5074297;28;20029;-42
2023/05/03 10:57:47;;;;;;;5.20;2.75;;;16.90;94.40;;;;;;5058791;28;20040;-42
2023/05/03 11:00:18;;;;;;;4.63;1.70;;;17.10;94.00;;;;;;5054194;28;20108;-41
2023/05/03 11:03:17;;;;;;;6.78;1.50;;;17.10;94.60;;;;;;5054206;28;20350;-43
2023/05/03 11:05:43;;;;;;;11.85;1.48;;;17.10;94.50;;;;;;5054127;28;20029;-43
2023/05/03 11:08:11;;;;;;;3.00;1.52;;;16.90;94.10;;;;;;5054340;28;20021;-42
2023/05/03 11:10:37;;;;;;;3.13;1.40;;;16.60;94.50;;;;;;5054023;28;20056;-43
2023/05/03 11:13:03;;;;;;;2.35;1.73;;;16.40;94.40;;;;;;5054550;28;20029;-45
2023/05/03 11:15:30;;;;;;;2.20;1.50;;;16.50;94.50;;;;;;5074146;28;20032;-44
2023/05/03 11:17:55;;;;;;;5.15;1.48;;;16.50;95.10;;;;;;5072400;28;20480;-40
2023/05/03 11:20:21;;;;;;;3.45;1.60;;;16.60;94.10;;;;;;5073793;28;20036;-43
2023/05/03 11:22:47;;;;;;;4.10;1.40;;;16.60;94.20;;;;;;5073796;28;20435;-42
2023/05/03 11:25:14;;;;;;;2.05;1.40;;;16.60;94.40;;;;;;5073988;28;20082;-41
2023/05/03 11:27:43;;;;;;;1.52;1.42;;;16.60;94.50;;;;;;5073856;28;20036;-42
2023/05/03 11:30:09;;;;;;;2.45;1.48;;;16.70;93.40;;;;;;5072596;28;20037;-46
2023/05/03 11:32:35;;;;;;;1.63;1.23;;;16.70;94.60;;;;;;5073932;28;20033;-45
2023/05/03 11:35:04;;;;;;;5.82;1.42;;;16.80;94.70;;;;;;5073572;28;20033;-41
2023/05/03 11:37:33;;;;;;;3.13;1.65;;;17.00;94.60;;;;;;5064258;28;20568;-42
2023/05/03 11:39:59;;;;;;;1.95;1.73;;;17.10;94.20;;;;;;5065302;28;20021;-42
2023/05/03 11:42:26;;;;;;;1.95;1.65;;;17.00;94.70;;;;;;5052681;28;20436;-42
2023/05/03 11:44:53;;;;;;;9.57;1.95;;;16.80;93.80;;;;;;5053330;28;20071;-45
2023/05/03 11:47:20;;;;;;;1.35;1.25;;;16.60;94.20;;;;;;5055047;28;20056;-41
2023/05/03 11:49:59;;;;;;;2.85;1.20;;;16.70;93.70;;;;;;5066893;28;20035;-39
2023/05/03 11:52:26;;;;;;;5.75;1.55;;;16.70;94.00;;;;;;5064022;28;20064;-43
2023/05/03 11:54:56;;;;;;;2.97;1.13;;;16.80;95.50;;;;;;5053105;28;20075;-41
2023/05/03 11:57:24;;;;;;;2.45;1.40;;;16.70;95.20;;;;;;5066693;28;20497;-45
2023/05/03 11:59:49;;;;;;;;;;;16.70;94.60;;;;;;5062736;28;20429;-42
2023/05/03 12:02:15;;;;;;;4.28;1.05;;;16.90;94.70;;;;;;5052974;28;19908;-39
2023/05/03 12:04:42;;;;;;;3.05;1.52;;;17.20;94.70;;;;;;5069343;28;20032;-35
2023/05/03 12:07:12;;;;;;;6.10;1.58;;;17.50;92.90;;;;;;5073257;28;20385;-38
2023/05/03 12:09:38;;;;;;;2.65;1.17;;;17.40;93.10;;;;;;5073144;28;20125;-39
2023/05/03 12:12:04;;;;;;;4.70;1.90;;;17.20;93.50;;;;;;5072915;28;20105;-36
2023/05/03 12:14:57;;;;;;;2.55;1.38;;;17.40;93.30;;;;;;5073180;28;20063;-37
2023/05/03 12:17:54;;;;;;;3.10;1.42;;;17.50;93.90;;;;;;5051430;28;20413;-36
2023/05/03 12:20:21;;;;;;;;;;;17.70;93.20;;;;;;5045218;28;20041;-38
2023/05/03 12:22:54;;;;;;;8.82;1.20;;;17.90;93.80;;;;;;5068064;28;20368;-35
2023/05/03 12:25:21;;;;;;;8.68;1.80;;;17.90;93.50;;;;;;5072833;28;20031;-35
2023/05/03 12:27:47;;;;;;;11.15;2.13;;;18.00;93.30;;;;;;5072975;28;20397;-36
2023/05/03 12:30:13;;;;;;;3.78;1.88;;;18.10;93.20;;;;;;5072722;28;20032;-38
2023/05/03 12:32:39;;;;;;;2.15;1.23;;;18.20;92.60;;;;;;5073011;28;20017;-38
2023/05/03 12:35:10;;;;;;;4.78;1.35;;;18.20;92.90;;;;;;5071015;28;20409;-35
2023/05/03 12:37:36;;;;;;;3.40;1.70;;;18.20;93.40;;;;;;5072930;28;20374;-37
2023/05/03 12:40:05;;;;;;;5.45;1.60;;;17.90;93.20;;;;;;5071660;28;20025;-36
2023/05/03 12:42:31;;;;;;;5.07;2.38;;;18.00;93.00;;;;;;5072883;28;20496;-38
2023/05/03 12:45:00;;;;;;;2.13;1.60;;;18.00;92.20;;;;;;5072579;28;20024;-39
2023/05/03 12:47:26;;;;;;;2.08;1.30;;;18.10;92.80;;;;;;5072538;28;20017;-36
2023/05/03 12:49:52;;;;;;;7.85;1.88;;;18.20;92.40;;;;;;5072781;28;20044;-39
2023/05/03 12:52:20;;;;;;;3.83;2.28;;;18.30;92.60;;;;;;5072625;28;20405;-43
2023/05/03 12:54:45;;;;;;;4.57;1.42;;;18.30;92.20;;;;;;5072571;28;20112;-43
2023/05/03 12:57:11;;;;;;;3.20;1.45;;;18.40;91.80;;;;;;5071476;28;20056;-41